Davis Crossroads, South Carolina
Current Conditions -  °F | °C
As of 9:38 PM on Wednesday 17 Dec 2014 (Local Time) from KSSC Reporting Station
Clear Clear  
Wind Chill: 43°   Ceiling: Unl
Heat Index: 43°   Visibility: 8mi
Dew Point: 37°   Wind: 0mph
Humidity: 81%   Direction: NA
Pressure: 30.09"   Gusts: NA
Location:  33.5851°N, 80.3623°W
Report Text: KSSC 180238Z AUTO 00000KT 8SM R04/5500FT CLR 06/03 A3009 RMK AO2
Loading
Personal Weather Stations






























Interactive Weather Map New forecast layout! Learn more

10-Day Weather Forecast

Advertisements
Track Severe Weather on mobile